Terminal Aerodrome Forecast
Issued by NWS Portland, ME

Current Version | Previous Version | Text Only | Print | Product List | Glossary On
Versions: 1 2 3 4 5 6 7 8 9 10 11 12 13 14 15 16 17 18 19
000
FTUS41 KGYX 031309 AAA
TAFPWM
TAF AMD
KPWM 031309Z 0313/0412 16005KT P6SM BKN003
     FM031400 16009KT P6SM SCT050
     FM040000 19003KT P6SM SCT200=

USA.gov is the U.S. government's official web portal to all federal, state and local government web resources and services.